Time;durP1;ratioP1;P1;durP2;ratioP2;P2;SDS_P1;SDS_P2;PMS_P1;PMS_P2;Temp;Humidity;BMP_temperature;BMP_pressure;BME280_temperature;BME280_humidity;BME280_pressure;Samples;Min_cycle;Max_cycle;Signal;HPM_P1;HPM_P2
2021/01/19 00:00:45;;;;;;;28.13;12.23;;;4.10;99.90;;;;;;4961542;29;20480;-51
2021/01/19 00:03:11;;;;;;;18.70;11.10;;;4.10;99.90;;;;;;4966628;28;20443;-52
2021/01/19 00:05:40;;;;;;;16.57;10.30;;;4.10;99.90;;;;;;4974812;28;20447;-54
2021/01/19 00:08:06;;;;;;;22.70;12.10;;;4.10;99.90;;;;;;4975347;28;20491;-53
2021/01/19 00:10:33;;;;;;;25.10;11.23;;;4.20;99.90;;;;;;4978732;28;20447;-50
2021/01/19 00:12:59;;;;;;;28.97;13.70;;;4.20;99.90;;;;;;4976632;28;20581;-51
2021/01/19 00:15:27;;;;;;;18.03;12.07;;;4.20;99.90;;;;;;4971877;28;20510;-49
2021/01/19 00:17:53;;;;;;;18.40;10.93;;;4.20;99.90;;;;;;4966566;28;20514;-47
2021/01/19 00:20:19;;;;;;;23.50;13.13;;;4.20;99.90;;;;;;4976753;28;20568;-49
2021/01/19 00:22:46;;;;;;;18.93;10.53;;;4.20;99.90;;;;;;4978875;28;20470;-49
2021/01/19 00:25:13;;;;;;;16.67;11.07;;;4.20;99.90;;;;;;4988545;28;20617;-54
2021/01/19 00:27:39;;;;;;;22.53;12.03;;;4.20;99.90;;;;;;4991057;28;20818;-53
2021/01/19 00:30:06;;;;;;;19.50;13.17;;;4.10;99.90;;;;;;4998838;28;20435;-48
2021/01/19 00:32:34;;;;;;;18.97;11.60;;;4.20;99.90;;;;;;4998594;28;20494;-55
2021/01/19 00:35:00;;;;;;;27.57;12.17;;;4.20;99.90;;;;;;4999436;28;20709;-50
2021/01/19 00:37:26;;;;;;;24.73;11.60;;;4.20;99.90;;;;;;5000140;28;20482;-51
2021/01/19 00:39:53;;;;;;;17.27;10.30;;;4.20;99.90;;;;;;4999050;28;20494;-52
2021/01/19 00:42:19;;;;;;;20.80;10.63;;;4.10;99.90;;;;;;4998751;28;20454;-55
2021/01/19 00:44:48;;;;;;;21.17;11.63;;;4.10;99.90;;;;;;4998851;28;20442;-54
2021/01/19 00:47:14;;;;;;;25.40;11.83;;;4.10;99.90;;;;;;4998167;28;20430;-54
2021/01/19 00:49:41;;;;;;;21.07;11.83;;;4.10;99.90;;;;;;4998197;28;20430;-55
2021/01/19 04:57:38;;;;;;;13.07;8.53;;;4.30;99.90;;;;;;5986609;23;20439;-48
2021/01/19 05:00:13;;;;;;;11.83;7.90;;;4.30;99.90;;;;;;5020151;28;20466;-48
2021/01/19 05:05:49;;;;;;;15.17;9.20;;;4.30;99.90;;;;;;5349223;23;20531;-47
2021/01/19 05:08:27;;;;;;;11.80;8.10;;;4.20;99.90;;;;;;4980771;29;20447;-46
2021/01/19 05:10:59;;;;;;;12.63;8.23;;;4.20;99.90;;;;;;4981266;29;20470;-44
2021/01/19 05:13:54;;;;;;;10.43;7.17;;;4.20;99.90;;;;;;4980502;29;20479;-47
2021/01/19 05:16:22;;;;;;;8.80;6.47;;;4.20;99.90;;;;;;4936235;29;20432;-42
2021/01/19 05:18:49;;;;;;;15.50;9.07;;;4.20;99.90;;;;;;4980745;29;20436;-44
2021/01/19 05:21:17;;;;;;;12.97;9.30;;;4.20;99.90;;;;;;4980379;28;20500;-48
2021/01/19 05:23:44;;;;;;;11.97;8.33;;;4.20;99.90;;;;;;4980354;28;20468;-51
2021/01/19 05:26:14;;;;;;;10.23;6.40;;;4.20;99.90;;;;;;4980474;29;20452;-52
2021/01/19 05:28:43;;;;;;;12.67;8.57;;;4.30;99.90;;;;;;4999730;28;20470;-49
2021/01/19 05:31:20;;;;;;;10.67;7.00;;;4.20;99.90;;;;;;5000236;28;20443;-46
2021/01/19 05:34:01;;;;;;;12.97;7.37;;;4.20;99.90;;;;;;5000843;28;20414;-46
2021/01/19 05:36:42;;;;;;;9.47;6.93;;;4.20;99.90;;;;;;5000843;28;20419;-44
2021/01/19 05:39:11;;;;;;;11.70;6.50;;;4.20;99.90;;;;;;5000895;28;20431;-45
2021/01/19 05:41:40;;;;;;;11.57;7.10;;;4.20;99.90;;;;;;4999955;28;20478;-47
2021/01/19 05:44:15;;;;;;;10.90;6.03;;;4.20;99.90;;;;;;4999517;28;20457;-42
2021/01/19 05:46:44;;;;;;;9.77;5.70;;;4.10;99.90;;;;;;4999152;28;20437;-43
2021/01/19 05:49:15;;;;;;;9.10;6.67;;;4.10;99.90;;;;;;4999541;28;20470;-43
2021/01/19 05:51:43;;;;;;;11.07;6.80;;;4.10;99.90;;;;;;4999046;28;20459;-42
2021/01/19 05:54:20;;;;;;;8.97;5.87;;;4.10;99.90;;;;;;4998692;28;20508;-46
2021/01/19 05:56:48;;;;;;;8.80;5.63;;;4.10;99.90;;;;;;4998448;28;20517;-48
2021/01/19 05:59:26;;;;;;;9.13;5.97;;;4.10;99.90;;;;;;4998941;28;20442;-46
2021/01/19 06:02:02;;;;;;;10.17;5.73;;;4.10;99.90;;;;;;4999168;28;20447;-44
2021/01/19 06:04:31;;;;;;;9.90;6.47;;;4.10;99.90;;;;;;4999634;28;20494;-43
2021/01/19 06:06:58;;;;;;;9.20;5.90;;;4.10;99.90;;;;;;4999997;28;20486;-44
2021/01/19 06:09:25;;;;;;;9.37;5.83;;;4.20;99.90;;;;;;5000006;28;20443;-46
2021/01/19 06:11:52;;;;;;;8.10;5.00;;;4.20;99.90;;;;;;5000068;28;20427;-49
2021/01/19 06:14:23;;;;;;;9.10;5.47;;;4.20;99.90;;;;;;5000414;28;20438;-45
2021/01/19 06:16:49;;;;;;;10.43;6.23;;;4.20;99.90;;;;;;4999409;28;20503;-47
2021/01/19 06:19:30;;;;;;;9.60;5.60;;;4.20;99.90;;;;;;4999740;28;20555;-43
2021/01/19 06:22:04;;;;;;;8.03;5.63;;;4.20;99.90;;;;;;5000088;28;20451;-49
2021/01/19 06:24:35;;;;;;;11.07;7.40;;;4.20;99.90;;;;;;4999867;28;20437;-44
2021/01/19 06:27:01;;;;;;;9.03;4.83;;;4.20;99.90;;;;;;5000098;28;20463;-48
2021/01/19 06:29:28;;;;;;;10.70;5.77;;;4.20;99.90;;;;;;4999467;28;20488;-49
2021/01/19 06:32:00;;;;;;;7.50;5.03;;;4.20;99.90;;;;;;4998070;28;20482;-45
2021/01/19 06:34:29;;;;;;;8.10;5.33;;;4.20;99.90;;;;;;4998584;28;20439;-53
2021/01/19 06:36:56;;;;;;;11.73;5.33;;;4.20;99.90;;;;;;4998178;28;20435;-49
2021/01/19 06:39:37;;;;;;;7.23;5.53;;;4.20;99.90;;;;;;4998136;28;20447;-51
2021/01/19 06:42:10;;;;;;;8.13;5.30;;;4.20;99.90;;;;;;4997609;28;20446;-52
2021/01/19 06:44:42;;;;;;;8.37;6.10;;;4.20;99.90;;;;;;4998581;28;20424;-51
2021/01/19 06:47:09;;;;;;;9.30;5.33;;;4.20;99.90;;;;;;4998470;28;20423;-54
2021/01/19 06:49:38;;;;;;;10.23;5.00;;;4.30;99.90;;;;;;4997987;28;20447;-49
2021/01/19 06:52:10;;;;;;;6.40;4.80;;;4.20;99.90;;;;;;4997979;28;20451;-43
2021/01/19 06:55:06;;;;;;;10.47;5.87;;;4.20;99.90;;;;;;4998068;28;20458;-48
2021/01/19 09:26:09;;;;;;;8.77;7.10;;;4.60;99.90;;;;;;5492885;23;20482;-43
2021/01/19 09:28:37;;;;;;;25.10;12.37;;;4.70;99.90;;;;;;4992625;28;20514;-52
2021/01/19 09:31:19;;;;;;;14.60;8.37;;;4.70;99.90;;;;;;4991992;28;20471;-45
2021/01/19 09:33:47;;;;;;;7.67;5.67;;;4.80;99.90;;;;;;4992770;28;20459;-49
2021/01/19 09:36:16;;;;;;;12.23;6.97;;;4.80;99.90;;;;;;4993555;28;20454;-51
2021/01/19 09:38:44;;;;;;;10.90;6.70;;;4.70;99.90;;;;;;4993265;28;20473;-44
2021/01/19 09:41:16;;;;;;;11.30;5.97;;;4.70;99.90;;;;;;4991897;28;20486;-44
2021/01/19 09:43:48;;;;;;;8.13;5.50;;;4.80;99.90;;;;;;4987807;28;20832;-46
2021/01/19 09:46:17;;;;;;;9.73;5.83;;;4.90;99.90;;;;;;4986802;28;20474;-48
2021/01/19 09:48:47;;;;;;;9.60;6.43;;;5.00;99.90;;;;;;4993303;28;20451;-52
2021/01/19 09:51:14;;;;;;;8.27;5.10;;;5.00;99.90;;;;;;4981938;28;20450;-52
2021/01/19 09:53:41;;;;;;;10.97;5.23;;;5.20;99.90;;;;;;4984917;28;20477;-53
2021/01/19 09:56:16;;;;;;;10.07;5.57;;;5.20;99.90;;;;;;4992346;28;20932;-48
2021/01/19 09:58:43;;;;;;;5.57;4.57;;;5.20;99.90;;;;;;4991021;28;20430;-50
2021/01/19 10:01:24;;;;;;;5.47;4.70;;;5.20;99.90;;;;;;4997686;28;20521;-49
2021/01/19 10:03:50;;;;;;;8.93;5.43;;;5.30;99.90;;;;;;4991104;28;20478;-53
2021/01/19 10:06:20;;;;;;;8.83;5.33;;;5.30;99.90;;;;;;4994991;28;20443;-54
2021/01/19 10:08:51;;;;;;;5.97;4.10;;;5.30;99.90;;;;;;4994590;28;20903;-52
2021/01/19 10:11:29;;;;;;;7.20;5.70;;;5.20;99.90;;;;;;4998655;28;20499;-54
2021/01/19 10:14:13;;;;;;;6.53;5.00;;;5.20;99.90;;;;;;4998414;28;20488;-54
2021/01/19 10:16:45;;;;;;;7.40;4.43;;;5.20;99.90;;;;;;4982097;28;20432;-55
2021/01/19 10:19:19;;;;;;;5.43;4.77;;;5.30;99.90;;;;;;4985334;28;20838;-49
2021/01/19 10:21:49;;;;;;;11.07;4.93;;;5.30;99.90;;;;;;4979388;28;20506;-49
2021/01/19 10:24:16;;;;;;;11.53;5.00;;;5.30;99.90;;;;;;4967373;28;20443;-50
2021/01/19 10:27:00;;;;;;;5.43;4.07;;;5.20;99.90;;;;;;4971813;28;20521;-50
2021/01/19 10:29:28;;;;;;;5.73;4.17;;;5.10;99.90;;;;;;4972345;28;20455;-50
2021/01/19 10:31:59;;;;;;;7.13;3.70;;;5.00;99.90;;;;;;4986239;28;20455;-45
2021/01/19 10:34:27;;;;;;;8.67;4.70;;;5.00;99.90;;;;;;4976061;28;20467;-48
2021/01/19 10:36:55;;;;;;;8.13;5.43;;;5.00;99.90;;;;;;4974358;28;20963;-44
2021/01/19 10:39:23;;;;;;;5.33;4.10;;;5.00;99.90;;;;;;4988910;28;20483;-48
2021/01/19 10:41:53;;;;;;;7.87;4.47;;;4.90;99.90;;;;;;4972385;28;20506;-43
2021/01/19 10:44:21;;;;;;;12.00;4.57;;;4.90;99.90;;;;;;4989061;28;20477;-47
2021/01/19 10:46:56;;;;;;;5.67;4.03;;;4.90;99.90;;;;;;4981607;28;20447;-44
2021/01/19 10:49:28;;;;;;;9.83;4.13;;;5.00;99.90;;;;;;4982840;28;20442;-44
2021/01/19 10:51:55;;;;;;;9.13;4.73;;;5.00;99.90;;;;;;4984268;28;20420;-52
2021/01/19 10:54:22;;;;;;;9.43;4.37;;;4.90;99.90;;;;;;4988485;28;20451;-47
2021/01/19 10:57:02;;;;;;;6.77;4.70;;;4.90;99.90;;;;;;4987217;28;20450;-49
2021/01/19 10:59:29;;;;;;;11.03;4.03;;;4.90;99.90;;;;;;4972675;28;20458;-50
2021/01/19 11:01:55;;;;;;;4.67;3.60;;;4.80;99.90;;;;;;4975351;28;20490;-48
2021/01/19 11:04:22;;;;;;;5.93;4.60;;;4.80;99.90;;;;;;4964119;28;20451;-47
2021/01/19 11:06:48;;;;;;;4.27;3.87;;;4.70;99.90;;;;;;4968550;28;20459;-50
2021/01/19 11:09:15;;;;;;;6.73;3.53;;;4.70;99.90;;;;;;4966792;28;20556;-46
2021/01/19 11:11:41;;;;;;;11.47;4.80;;;4.60;99.90;;;;;;4967199;28;20471;-48
2021/01/19 11:14:09;;;;;;;5.97;4.27;;;4.60;99.90;;;;;;4980712;28;20474;-49
2021/01/19 11:16:38;;;;;;;5.83;4.30;;;4.50;99.90;;;;;;4964724;28;20930;-48
2021/01/19 11:19:07;;;;;;;12.93;5.50;;;4.40;99.90;;;;;;4960789;29;20447;-47
2021/01/19 11:21:34;;;;;;;10.60;4.40;;;4.30;99.90;;;;;;4973334;28;20954;-47
2021/01/19 11:24:02;;;;;;;6.30;4.30;;;4.30;99.90;;;;;;4970175;28;20853;-50
2021/01/19 11:26:29;;;;;;;9.90;3.57;;;4.30;99.90;;;;;;4971103;28;20484;-47
2021/01/19 11:28:57;;;;;;;9.53;4.67;;;4.20;99.90;;;;;;4981996;28;20942;-48
2021/01/19 11:31:26;;;;;;;4.23;3.23;;;4.10;99.90;;;;;;4987390;28;20443;-45
2021/01/19 11:33:53;;;;;;;4.03;3.50;;;4.10;99.90;;;;;;4987411;28;20474;-46
2021/01/19 11:36:22;;;;;;;8.23;3.67;;;4.00;99.90;;;;;;4984872;28;20762;-49
2021/01/19 11:38:49;;;;;;;8.40;3.30;;;3.90;99.90;;;;;;4968334;28;20469;-50
2021/01/19 11:41:17;;;;;;;6.43;3.53;;;3.80;99.90;;;;;;4972982;28;20637;-50
2021/01/19 11:43:43;;;;;;;8.37;4.17;;;3.80;99.90;;;;;;4976798;28;20455;-47
2021/01/19 11:46:11;;;;;;;6.37;3.83;;;3.70;99.90;;;;;;4972541;28;20458;-45
2021/01/19 11:48:38;;;;;;;8.57;3.93;;;3.70;99.90;;;;;;4971746;28;20511;-51
2021/01/19 11:51:05;;;;;;;8.37;4.17;;;4.00;99.90;;;;;;4969993;28;20471;-52
2021/01/19 11:53:32;;;;;;;4.93;4.20;;;5.50;99.90;;;;;;4977543;28;20459;-49
2021/01/19 11:56:02;;;;;;;5.50;3.60;;;6.00;99.90;;;;;;4982002;28;20530;-50
2021/01/19 11:58:29;;;;;;;4.90;2.50;;;5.70;99.90;;;;;;4976946;28;20467;-49
2021/01/19 12:00:56;;;;;;;5.33;3.47;;;5.10;99.90;;;;;;4969264;28;20495;-48
2021/01/19 12:03:23;;;;;;;5.63;3.07;;;4.60;99.90;;;;;;4962906;28;20471;-48
2021/01/19 12:05:51;;;;;;;9.20;3.20;;;4.20;99.90;;;;;;4966720;28;20451;-50
2021/01/19 12:08:17;;;;;;;6.10;3.70;;;3.80;99.90;;;;;;4968899;28;20511;-48
2021/01/19 12:10:45;;;;;;;4.97;3.77;;;3.60;99.90;;;;;;4973115;28;20470;-49
2021/01/19 12:13:12;;;;;;;6.77;3.37;;;3.30;99.90;;;;;;4976842;28;20431;-46
2021/01/19 12:15:42;;;;;;;7.37;3.20;;;3.10;99.90;;;;;;4986066;28;20463;-50
2021/01/19 12:18:10;;;;;;;5.97;3.67;;;3.00;99.90;;;;;;4984852;28;20430;-44
2021/01/19 12:20:36;;;;;;;4.63;3.60;;;2.90;99.90;;;;;;4983661;28;20575;-51
2021/01/19 12:23:05;;;;;;;9.50;3.50;;;2.80;99.90;;;;;;4993662;28;20491;-50
2021/01/19 12:25:31;;;;;;;3.27;2.70;;;2.70;99.90;;;;;;4988757;28;20479;-48
2021/01/19 12:27:59;;;;;;;10.00;3.20;;;2.70;99.90;;;;;;4984441;28;20452;-50
2021/01/19 12:30:26;;;;;;;6.00;3.00;;;2.60;99.90;;;;;;5001479;28;20447;-48
2021/01/19 12:32:52;;;;;;;8.23;3.43;;;2.50;99.90;;;;;;4983064;28;20453;-47
2021/01/19 12:35:20;;;;;;;5.00;3.60;;;2.50;99.90;;;;;;4996163;28;20453;-46
2021/01/19 12:37:46;;;;;;;4.27;3.83;;;2.50;99.90;;;;;;4982791;28;20443;-52
2021/01/19 12:40:14;;;;;;;3.57;3.07;;;2.50;99.90;;;;;;4981138;28;20904;-51
2021/01/19 12:42:42;;;;;;;3.83;3.17;;;2.40;99.90;;;;;;4990584;28;20436;-45
2021/01/19 12:45:11;;;;;;;6.53;4.00;;;2.40;99.90;;;;;;4980323;28;20454;-46
2021/01/19 12:47:37;;;;;;;5.93;3.63;;;2.30;99.90;;;;;;4990115;28;20482;-44
2021/01/19 12:50:05;;;;;;;7.23;5.00;;;2.30;99.90;;;;;;4991981;28;20444;-49
2021/01/19 12:52:32;;;;;;;8.20;3.30;;;2.30;99.90;;;;;;4992954;28;20451;-45
2021/01/19 12:54:59;;;;;;;7.13;3.50;;;2.40;99.90;;;;;;4978536;28;20435;-46
2021/01/19 12:57:26;;;;;;;4.93;3.60;;;2.40;99.90;;;;;;4982695;28;20496;-46
2021/01/19 12:59:53;;;;;;;7.30;4.50;;;2.40;99.90;;;;;;4976862;28;20455;-46
2021/01/19 13:02:21;;;;;;;7.73;4.63;;;2.40;99.90;;;;;;4982558;28;20483;-51
2021/01/19 13:04:48;;;;;;;6.10;4.40;;;2.40;99.90;;;;;;4982388;28;20534;-46
2021/01/19 13:07:15;;;;;;;15.60;7.60;;;2.30;99.90;;;;;;4972720;28;20978;-51
2021/01/19 13:09:42;;;;;;;6.93;3.77;;;2.30;99.90;;;;;;4979963;28;20463;-46
2021/01/19 13:12:11;;;;;;;5.83;3.70;;;2.30;99.90;;;;;;4981699;28;20451;-51
2021/01/19 13:14:38;;;;;;;4.03;3.20;;;2.30;99.90;;;;;;4974468;28;20448;-46
2021/01/19 13:17:05;;;;;;;4.73;3.67;;;2.20;99.90;;;;;;4976654;28;20465;-47
2021/01/19 13:19:32;;;;;;;8.50;3.60;;;2.30;99.90;;;;;;4973094;28;20439;-44
2021/01/19 13:21:59;;;;;;;4.97;3.67;;;2.30;99.90;;;;;;4988578;28;20481;-50
2021/01/19 13:24:28;;;;;;;4.50;3.43;;;2.30;99.90;;;;;;4983492;28;20464;-51
2021/01/19 13:26:55;;;;;;;7.03;3.97;;;2.30;99.90;;;;;;4987823;28;20471;-49
2021/01/19 13:29:22;;;;;;;5.50;3.80;;;2.30;99.90;;;;;;4993340;28;20454;-42
2021/01/19 13:31:50;;;;;;;8.80;3.00;;;2.20;99.90;;;;;;4998313;28;20461;-47
2021/01/19 13:34:16;;;;;;;9.80;5.07;;;2.20;99.90;;;;;;4983244;28;20956;-47
2021/01/19 13:36:45;;;;;;;9.40;4.67;;;2.20;99.90;;;;;;4983005;28;20509;-45
2021/01/19 13:39:11;;;;;;;9.27;5.13;;;2.30;99.90;;;;;;4996188;28;20435;-48
2021/01/19 13:41:38;;;;;;;6.77;4.77;;;2.30;99.90;;;;;;4997875;28;20475;-51
2021/01/19 13:44:05;;;;;;;4.27;3.87;;;2.30;99.90;;;;;;4995375;28;20563;-44
2021/01/19 13:46:33;;;;;;;5.17;4.43;;;2.30;99.90;;;;;;4991867;28;20462;-49
2021/01/19 13:49:01;;;;;;;7.77;4.47;;;2.30;99.90;;;;;;4984575;28;20431;-48
2021/01/19 13:51:28;;;;;;;10.27;4.80;;;2.30;99.90;;;;;;4982494;28;20506;-46
2021/01/19 13:53:55;;;;;;;7.53;4.00;;;2.40;99.90;;;;;;4980036;28;20444;-45
2021/01/19 13:56:24;;;;;;;4.73;4.20;;;2.40;99.90;;;;;;4986725;28;20451;-48
2021/01/19 13:58:51;;;;;;;8.83;4.60;;;2.40;99.90;;;;;;4977683;28;20451;-48
2021/01/19 14:01:17;;;;;;;7.13;3.93;;;2.40;99.90;;;;;;4972783;28;20797;-51
2021/01/19 14:03:44;;;;;;;6.97;4.43;;;2.40;99.90;;;;;;4987079;28;20468;-48
2021/01/19 14:06:13;;;;;;;7.30;5.23;;;2.40;99.90;;;;;;4994581;28;20612;-51
2021/01/19 14:08:40;;;;;;;6.50;4.50;;;2.40;99.90;;;;;;4986847;28;20450;-47
2021/01/19 14:11:07;;;;;;;6.57;4.07;;;2.40;99.90;;;;;;4965959;28;20539;-44
2021/01/19 14:13:34;;;;;;;5.90;4.60;;;2.40;99.90;;;;;;4973580;28;20497;-49
2021/01/19 14:16:01;;;;;;;6.90;3.93;;;2.50;99.90;;;;;;4974494;28;20458;-49
2021/01/19 14:18:28;;;;;;;5.47;4.97;;;2.50;99.90;;;;;;4974225;28;20537;-43
2021/01/19 14:20:55;;;;;;;13.90;6.47;;;2.50;99.90;;;;;;4970814;28;20474;-42
2021/01/19 14:23:23;;;;;;;7.30;4.53;;;2.50;99.90;;;;;;4973103;28;20467;-45
2021/01/19 14:25:50;;;;;;;6.43;4.53;;;2.60;99.90;;;;;;4969043;28;20492;-51
2021/01/19 14:28:17;;;;;;;7.33;4.67;;;2.60;99.90;;;;;;4963015;28;20456;-49
2021/01/19 14:30:44;;;;;;;7.43;5.27;;;2.60;99.90;;;;;;4970028;28;20428;-44
2021/01/19 14:33:11;;;;;;;6.37;5.20;;;2.70;99.90;;;;;;4973415;28;20491;-46
2021/01/19 14:35:38;;;;;;;7.00;3.93;;;2.70;99.90;;;;;;4975709;28;20485;-48
2021/01/19 14:38:04;;;;;;;5.27;3.40;;;2.70;99.90;;;;;;4984715;28;20456;-45
2021/01/19 14:40:32;;;;;;;5.73;3.77;;;2.70;99.90;;;;;;4976189;28;20479;-46
2021/01/19 14:42:59;;;;;;;6.33;4.50;;;2.70;99.90;;;;;;4983704;28;20471;-46
2021/01/19 14:45:27;;;;;;;5.53;4.10;;;2.70;99.90;;;;;;4983954;28;20459;-43
2021/01/19 14:47:54;;;;;;;5.70;4.40;;;2.70;99.90;;;;;;4987467;28;20451;-47
2021/01/19 14:50:21;;;;;;;5.03;3.90;;;2.70;99.90;;;;;;4996263;28;20447;-47
2021/01/19 14:52:48;;;;;;;4.40;3.40;;;2.80;99.90;;;;;;4983007;28;20483;-48
2021/01/19 14:55:15;;;;;;;4.67;4.20;;;2.80;99.90;;;;;;4969593;28;20467;-52
2021/01/19 14:57:44;;;;;;;11.67;4.57;;;2.90;99.90;;;;;;4977385;28;20535;-43
2021/01/19 15:00:12;;;;;;;5.80;4.37;;;2.80;99.90;;;;;;4966710;28;20457;-44
2021/01/19 15:02:40;;;;;;;6.10;4.50;;;2.90;99.90;;;;;;4968951;28;20455;-43
2021/01/19 15:05:08;;;;;;;5.70;4.00;;;2.90;99.90;;;;;;4972054;28;21073;-43
2021/01/19 15:07:35;;;;;;;8.40;5.60;;;2.90;99.90;;;;;;4971956;28;20452;-43
2021/01/19 15:10:02;;;;;;;7.30;5.77;;;2.90;99.90;;;;;;4994328;28;20507;-45
2021/01/19 15:12:29;;;;;;;7.23;4.10;;;2.90;99.90;;;;;;4993550;28;20440;-45
2021/01/19 15:14:57;;;;;;;8.17;5.17;;;2.90;99.90;;;;;;4982008;28;20463;-46
2021/01/19 15:17:24;;;;;;;8.87;4.57;;;2.90;99.90;;;;;;4976267;28;20447;-46
2021/01/19 15:19:54;;;;;;;6.03;3.97;;;2.90;99.90;;;;;;4978312;28;20440;-49
2021/01/19 15:22:21;;;;;;;7.63;4.43;;;2.90;99.90;;;;;;4978805;28;20610;-47
2021/01/19 15:24:49;;;;;;;5.80;4.83;;;3.00;99.90;;;;;;4978217;29;20451;-46
2021/01/19 15:27:16;;;;;;;5.40;4.03;;;3.00;99.90;;;;;;4977722;28;20439;-50
2021/01/19 15:29:43;;;;;;;9.33;5.80;;;3.00;99.90;;;;;;4997773;28;20458;-49
2021/01/19 15:32:10;;;;;;;7.07;4.27;;;3.00;99.90;;;;;;4997646;28;20435;-47
2021/01/19 15:34:37;;;;;;;5.40;4.17;;;3.00;99.90;;;;;;4996871;28;20451;-49
2021/01/19 15:37:06;;;;;;;4.40;3.97;;;3.00;99.90;;;;;;4990877;28;20501;-45
2021/01/19 15:39:34;;;;;;;5.23;4.60;;;3.00;99.90;;;;;;4991210;28;20443;-50
2021/01/19 15:42:03;;;;;;;6.13;4.53;;;3.00;99.90;;;;;;4997841;28;20502;-51
2021/01/19 15:44:30;;;;;;;5.63;4.20;;;3.00;99.90;;;;;;4998105;28;20454;-50
2021/01/19 15:46:57;;;;;;;7.27;5.30;;;3.00;99.90;;;;;;4997692;28;20470;-49
2021/01/19 15:49:24;;;;;;;10.63;5.30;;;3.10;99.90;;;;;;4982272;28;20447;-46
2021/01/19 15:51:51;;;;;;;7.33;4.67;;;3.10;99.90;;;;;;4983062;28;20502;-51
2021/01/19 15:54:18;;;;;;;5.40;4.10;;;3.10;99.90;;;;;;4989185;28;20494;-47
2021/01/19 15:56:46;;;;;;;5.97;5.00;;;3.10;99.90;;;;;;4983677;28;20463;-45
2021/01/19 15:59:16;;;;;;;5.87;4.40;;;3.20;99.90;;;;;;4988656;28;20451;-49
2021/01/19 16:01:47;;;;;;;6.40;4.93;;;3.20;99.90;;;;;;4988520;28;20474;-48
2021/01/19 16:04:14;;;;;;;3.77;3.47;;;3.20;99.90;;;;;;4981642;28;20470;-49
2021/01/19 16:06:42;;;;;;;7.60;3.90;;;3.20;99.90;;;;;;4989543;28;20916;-47
2021/01/19 16:09:10;;;;;;;9.97;4.23;;;3.20;99.90;;;;;;4976024;28;20455;-44
2021/01/19 16:11:38;;;;;;;6.57;4.07;;;3.30;99.90;;;;;;4966801;28;20450;-48
2021/01/19 16:14:07;;;;;;;4.07;3.70;;;3.30;99.90;;;;;;4982243;28;20459;-49
2021/01/19 16:16:34;;;;;;;5.40;4.57;;;3.20;99.90;;;;;;4974815;28;20458;-47
2021/01/19 16:19:02;;;;;;;4.03;3.53;;;3.30;99.90;;;;;;4968310;28;20463;-44
2021/01/19 16:21:29;;;;;;;5.83;4.03;;;3.30;99.90;;;;;;4977072;28;21044;-51
2021/01/19 16:23:57;;;;;;;6.17;4.90;;;3.30;99.90;;;;;;4974567;28;20463;-50
2021/01/19 16:26:25;;;;;;;4.27;3.27;;;3.40;99.90;;;;;;4973018;28;20509;-46
2021/01/19 16:28:54;;;;;;;4.97;3.60;;;3.40;99.90;;;;;;4969052;28;20447;-49
2021/01/19 16:31:22;;;;;;;4.97;4.37;;;3.40;99.90;;;;;;4969857;28;20483;-46
2021/01/19 16:33:50;;;;;;;5.17;4.20;;;3.40;99.90;;;;;;4972244;28;20482;-47
2021/01/19 16:36:23;;;;;;;6.30;4.33;;;3.40;99.90;;;;;;4969862;28;20466;-49
2021/01/19 16:38:50;;;;;;;5.10;4.30;;;3.40;99.90;;;;;;4976408;28;20953;-47
2021/01/19 16:41:19;;;;;;;17.43;8.60;;;3.30;99.90;;;;;;4975235;28;20487;-47
2021/01/19 16:43:46;;;;;;;11.60;9.83;;;3.30;99.90;;;;;;4977839;28;20454;-46
2021/01/19 16:46:13;;;;;;;6.80;4.77;;;3.30;99.90;;;;;;4976671;28;20469;-46
2021/01/19 16:48:40;;;;;;;6.10;4.07;;;3.40;99.90;;;;;;4973073;28;20942;-50
2021/01/19 16:51:07;;;;;;;5.67;5.00;;;3.40;99.90;;;;;;4973037;28;20448;-45
2021/01/19 16:53:35;;;;;;;5.77;4.60;;;3.40;99.90;;;;;;4970979;28;20455;-46
2021/01/19 16:56:02;;;;;;;5.40;4.13;;;3.40;99.90;;;;;;4975821;28;20435;-45
2021/01/19 16:58:29;;;;;;;6.40;4.10;;;3.50;99.90;;;;;;4976267;28;20550;-50
2021/01/19 17:00:57;;;;;;;8.20;4.60;;;3.50;99.90;;;;;;4969729;28;20479;-44
2021/01/19 17:03:24;;;;;;;5.20;4.70;;;3.40;99.90;;;;;;4976934;28;20806;-52
2021/01/19 17:05:50;;;;;;;5.00;4.20;;;3.40;99.90;;;;;;4982943;28;20443;-45
2021/01/19 17:08:17;;;;;;;6.83;4.80;;;3.40;99.90;;;;;;4986570;28;20440;-46
2021/01/19 17:10:45;;;;;;;7.07;4.10;;;3.50;99.90;;;;;;4987834;28;20471;-48
2021/01/19 17:13:12;;;;;;;4.67;3.77;;;3.50;99.90;;;;;;4980741;28;20443;-46
2021/01/19 17:15:40;;;;;;;5.50;4.50;;;3.50;99.90;;;;;;4982464;28;20451;-47
2021/01/19 17:18:06;;;;;;;5.20;3.97;;;3.50;99.90;;;;;;4992204;28;20786;-45
2021/01/19 17:20:33;;;;;;;7.93;4.53;;;3.50;99.90;;;;;;4993320;28;20445;-46
2021/01/19 17:23:00;;;;;;;4.90;3.80;;;3.50;99.90;;;;;;4994210;28;20437;-44
2021/01/19 17:25:27;;;;;;;13.50;6.90;;;3.60;99.90;;;;;;4983686;28;20787;-44
2021/01/19 17:27:54;;;;;;;15.97;8.27;;;3.60;99.90;;;;;;4982845;28;20447;-43
2021/01/19 17:30:21;;;;;;;5.80;4.20;;;3.70;99.90;;;;;;4989487;28;20447;-44
2021/01/19 17:32:49;;;;;;;11.63;5.80;;;3.70;99.90;;;;;;4974651;28;20440;-44
2021/01/19 17:35:18;;;;;;;6.10;4.47;;;3.70;99.90;;;;;;4982414;28;20452;-45
2021/01/19 17:37:45;;;;;;;9.43;3.87;;;3.80;99.90;;;;;;4978766;28;20430;-47
2021/01/19 17:40:13;;;;;;;4.77;3.60;;;3.80;99.90;;;;;;4979138;28;20451;-46
2021/01/19 17:42:41;;;;;;;5.47;3.70;;;3.90;99.90;;;;;;4979284;28;20487;-49
2021/01/19 17:45:09;;;;;;;5.40;4.23;;;3.90;99.90;;;;;;4990158;28;20742;-46
2021/01/19 17:47:40;;;;;;;4.83;4.27;;;3.90;99.90;;;;;;4984273;28;20451;-43
2021/01/19 17:50:09;;;;;;;7.10;4.43;;;3.90;99.90;;;;;;4980007;28;20479;-43
2021/01/19 17:52:41;;;;;;;11.13;6.83;;;4.00;99.90;;;;;;4984003;28;20447;-45
2021/01/19 17:55:12;;;;;;;6.10;4.37;;;4.00;99.90;;;;;;4982639;28;20455;-46
2021/01/19 17:57:46;;;;;;;5.60;4.20;;;4.00;99.90;;;;;;4989447;28;20491;-45
2021/01/19 18:00:21;;;;;;;5.33;3.83;;;4.00;99.90;;;;;;4994867;28;20489;-48
2021/01/19 18:02:48;;;;;;;9.20;5.13;;;3.90;99.90;;;;;;4989970;28;20542;-47
2021/01/19 18:05:16;;;;;;;6.60;4.63;;;4.00;99.90;;;;;;4993100;28;20856;-46
2021/01/19 18:07:43;;;;;;;5.53;3.97;;;4.00;99.90;;;;;;4993210;28;20551;-46
2021/01/19 18:10:10;;;;;;;4.53;4.10;;;4.00;99.90;;;;;;4997499;28;20442;-45
2021/01/19 18:12:37;;;;;;;6.80;4.33;;;4.10;99.90;;;;;;4998054;28;20471;-50
2021/01/19 18:15:04;;;;;;;8.63;4.80;;;4.10;99.90;;;;;;4996901;28;20443;-45
2021/01/19 18:17:31;;;;;;;8.13;5.20;;;4.10;99.90;;;;;;4993146;28;20454;-44
2021/01/19 18:19:58;;;;;;;6.47;3.73;;;4.10;99.90;;;;;;4993217;28;20543;-45
2021/01/19 18:22:25;;;;;;;6.50;4.40;;;4.10;99.90;;;;;;4994398;28;20996;-43
2021/01/19 18:24:51;;;;;;;4.70;3.47;;;4.10;99.90;;;;;;4992465;28;20462;-45
2021/01/19 18:27:18;;;;;;;5.40;3.50;;;4.10;99.90;;;;;;4978435;28;20474;-42
2021/01/19 18:29:44;;;;;;;6.23;4.23;;;4.10;99.90;;;;;;4966119;28;20447;-44
2021/01/19 18:32:10;;;;;;;6.93;4.10;;;4.20;99.90;;;;;;4973301;28;20553;-44
2021/01/19 18:34:37;;;;;;;4.37;3.07;;;4.20;99.90;;;;;;4972574;28;20919;-45
2021/01/19 18:37:05;;;;;;;4.93;3.57;;;4.20;99.90;;;;;;4986671;28;20443;-44
2021/01/19 18:39:36;;;;;;;18.07;10.50;;;4.30;99.90;;;;;;4979083;28;20778;-41
2021/01/19 18:42:05;;;;;;;18.37;10.30;;;4.40;99.90;;;;;;4982675;28;20475;-42
2021/01/19 18:44:31;;;;;;;7.93;6.00;;;4.40;99.90;;;;;;4987097;28;20451;-42
2021/01/19 18:46:58;;;;;;;5.03;4.33;;;4.40;99.90;;;;;;4987523;28;20474;-49
2021/01/19 18:49:27;;;;;;;4.90;4.00;;;4.40;99.90;;;;;;4993589;28;20447;-42
2021/01/19 18:51:57;;;;;;;4.77;3.40;;;4.40;99.90;;;;;;4978932;28;20508;-42
2021/01/19 18:54:25;;;;;;;4.10;3.70;;;4.40;99.90;;;;;;4986225;28;20458;-43
2021/01/19 18:56:53;;;;;;;6.97;5.67;;;4.40;99.90;;;;;;4983041;28;20466;-43
2021/01/19 18:59:19;;;;;;;5.30;4.80;;;4.40;99.90;;;;;;4992450;28;20455;-44
2021/01/19 19:01:46;;;;;;;5.93;4.97;;;4.40;99.90;;;;;;4988136;28;20510;-43
2021/01/19 19:04:14;;;;;;;7.83;5.40;;;4.50;99.90;;;;;;4986694;28;20528;-42
2021/01/19 19:06:42;;;;;;;6.40;5.53;;;4.40;99.90;;;;;;4978321;28;20432;-44
2021/01/19 19:09:08;;;;;;;8.03;5.33;;;4.40;99.90;;;;;;4987071;28;20450;-42
2021/01/19 19:11:36;;;;;;;6.80;5.60;;;4.50;99.90;;;;;;4981308;28;20435;-46
2021/01/19 19:14:05;;;;;;;6.47;5.87;;;4.50;99.90;;;;;;4984325;28;20444;-45
2021/01/19 19:16:33;;;;;;;9.63;7.37;;;4.50;99.90;;;;;;4983318;28;20474;-44
2021/01/19 19:19:01;;;;;;;9.50;7.20;;;4.60;99.90;;;;;;4995148;28;20455;-46
2021/01/19 19:21:27;;;;;;;8.20;6.93;;;4.60;99.90;;;;;;4992080;28;20519;-42
2021/01/19 19:23:54;;;;;;;8.60;6.90;;;4.60;99.90;;;;;;4986554;28;20439;-43
2021/01/19 19:26:21;;;;;;;9.57;6.47;;;4.60;99.90;;;;;;4977480;28;20475;-43
2021/01/19 19:28:50;;;;;;;7.47;6.70;;;4.60;99.90;;;;;;4977364;29;20467;-43
2021/01/19 19:31:17;;;;;;;11.70;7.47;;;4.60;99.90;;;;;;4985706;28;20461;-45
2021/01/19 19:33:44;;;;;;;6.80;5.43;;;4.60;99.90;;;;;;4986826;28;20458;-43
2021/01/19 19:36:10;;;;;;;7.97;5.37;;;4.70;99.90;;;;;;4992399;28;20458;-45